sensor_id;sensor_type;location;lat;lon;timestamp;P1;durP1;ratioP1;P2;durP2;ratioP2
35364;SDS011;21464;48.112;11.530;2022-09-03T00:00:47;2.47;;;2.30;;
35364;SDS011;21464;48.112;11.530;2022-09-03T00:03:19;2.50;;;2.30;;
35364;SDS011;21464;48.112;11.530;2022-09-03T00:08:46;3.40;;;2.28;;
35364;SDS011;21464;48.112;11.530;2022-09-03T00:16:19;2.33;;;2.13;;
35364;SDS011;21464;48.112;11.530;2022-09-03T00:18:52;2.33;;;2.08;;
35364;SDS011;21464;48.112;11.530;2022-09-03T00:21:27;2.70;;;2.38;;
35364;SDS011;21464;48.112;11.530;2022-09-03T00:23:54;2.50;;;2.30;;
35364;SDS011;21464;48.112;11.530;2022-09-03T00:26:26;2.78;;;2.35;;
35364;SDS011;21464;48.112;11.530;2022-09-03T00:28:55;2.33;;;2.20;;
35364;SDS011;21464;48.112;11.530;2022-09-03T00:31:34;2.40;;;2.20;;
35364;SDS011;21464;48.112;11.530;2022-09-03T00:34:45;2.60;;;2.13;;
35364;SDS011;21464;48.112;11.530;2022-09-03T00:36:51;2.53;;;2.33;;
35364;SDS011;21464;48.112;11.530;2022-09-03T00:39:18;2.58;;;2.38;;
35364;SDS011;21464;48.112;11.530;2022-09-03T00:42:00;3.00;;;2.53;;
35364;SDS011;21464;48.112;11.530;2022-09-03T00:47:03;2.58;;;2.35;;
35364;SDS011;21464;48.112;11.530;2022-09-03T00:59:40;2.60;;;2.40;;
35364;SDS011;21464;48.112;11.530;2022-09-03T01:02:14;3.67;;;2.60;;
35364;SDS011;21464;48.112;11.530;2022-09-03T01:07:24;2.60;;;2.40;;
35364;SDS011;21464;48.112;11.530;2022-09-03T01:09:59;2.67;;;2.47;;
35364;SDS011;21464;48.112;11.530;2022-09-03T01:15:03;4.30;;;2.80;;
35364;SDS011;21464;48.112;11.530;2022-09-03T01:25:14;3.63;;;2.53;;
35364;SDS011;21464;48.112;11.530;2022-09-03T01:27:44;3.25;;;2.70;;
35364;SDS011;21464;48.112;11.530;2022-09-03T01:30:12;2.80;;;2.60;;
35364;SDS011;21464;48.112;11.530;2022-09-03T01:40:32;2.50;;;2.30;;
35364;SDS011;21464;48.112;11.530;2022-09-03T01:50:40;2.88;;;2.67;;
35364;SDS011;21464;48.112;11.530;2022-09-03T01:53:18;3.38;;;2.58;;
35364;SDS011;21464;48.112;11.530;2022-09-03T01:55:57;3.25;;;2.67;;
35364;SDS011;21464;48.112;11.530;2022-09-03T01:58:39;2.63;;;2.45;;
35364;SDS011;21464;48.112;11.530;2022-09-03T02:01:09;3.92;;;2.85;;
35364;SDS011;21464;48.112;11.530;2022-09-03T02:03:38;2.90;;;2.70;;
35364;SDS011;21464;48.112;11.530;2022-09-03T02:06:06;2.90;;;2.70;;
35364;SDS011;21464;48.112;11.530;2022-09-03T02:08:32;2.80;;;2.60;;
35364;SDS011;21464;48.112;11.530;2022-09-03T02:10:58;2.65;;;2.45;;
35364;SDS011;21464;48.112;11.530;2022-09-03T02:15:52;3.28;;;2.70;;
35364;SDS011;21464;48.112;11.530;2022-09-03T02:18:21;2.88;;;2.63;;
35364;SDS011;21464;48.112;11.530;2022-09-03T02:20:48;2.78;;;2.58;;
35364;SDS011;21464;48.112;11.530;2022-09-03T02:23:15;2.92;;;2.72;;
35364;SDS011;21464;48.112;11.530;2022-09-03T02:25:43;3.80;;;2.42;;
35364;SDS011;21464;48.112;11.530;2022-09-03T02:28:09;2.92;;;2.72;;
35364;SDS011;21464;48.112;11.530;2022-09-03T02:30:36;3.03;;;2.83;;
35364;SDS011;21464;48.112;11.530;2022-09-03T02:33:01;2.97;;;2.67;;
35364;SDS011;21464;48.112;11.530;2022-09-03T02:35:27;3.47;;;2.60;;
35364;SDS011;21464;48.112;11.530;2022-09-03T02:37:53;3.38;;;3.08;;
35364;SDS011;21464;48.112;11.530;2022-09-03T02:40:19;2.83;;;2.65;;
35364;SDS011;21464;48.112;11.530;2022-09-03T02:42:45;2.80;;;2.63;;
35364;SDS011;21464;48.112;11.530;2022-09-03T02:45:15;2.95;;;2.65;;
35364;SDS011;21464;48.112;11.530;2022-09-03T02:47:44;3.15;;;2.85;;
35364;SDS011;21464;48.112;11.530;2022-09-03T02:50:12;4.47;;;2.67;;
35364;SDS011;21464;48.112;11.530;2022-09-03T02:52:38;3.20;;;2.90;;
35364;SDS011;21464;48.112;11.530;2022-09-03T02:55:04;3.00;;;2.80;;
35364;SDS011;21464;48.112;11.530;2022-09-03T02:57:30;3.20;;;2.90;;
35364;SDS011;21464;48.112;11.530;2022-09-03T02:59:56;2.92;;;2.72;;
35364;SDS011;21464;48.112;11.530;2022-09-03T03:02:22;2.90;;;2.70;;
35364;SDS011;21464;48.112;11.530;2022-09-03T03:04:48;4.45;;;4.03;;
35364;SDS011;21464;48.112;11.530;2022-09-03T03:07:14;3.03;;;2.72;;
35364;SDS011;21464;48.112;11.530;2022-09-03T03:09:39;3.08;;;2.88;;
35364;SDS011;21464;48.112;11.530;2022-09-03T03:12:05;3.00;;;2.80;;
35364;SDS011;21464;48.112;11.530;2022-09-03T03:14:31;3.00;;;2.80;;
35364;SDS011;21464;48.112;11.530;2022-09-03T03:16:57;6.15;;;3.10;;
35364;SDS011;21464;48.112;11.530;2022-09-03T03:19:23;3.10;;;2.80;;
35364;SDS011;21464;48.112;11.530;2022-09-03T03:21:49;2.58;;;2.40;;
35364;SDS011;21464;48.112;11.530;2022-09-03T03:24:15;3.17;;;2.60;;
35364;SDS011;21464;48.112;11.530;2022-09-03T03:26:41;3.00;;;2.80;;
35364;SDS011;21464;48.112;11.530;2022-09-03T03:29:07;3.67;;;3.38;;
35364;SDS011;21464;48.112;11.530;2022-09-03T03:31:35;3.38;;;3.08;;
35364;SDS011;21464;48.112;11.530;2022-09-03T03:34:01;3.65;;;3.28;;
35364;SDS011;21464;48.112;11.530;2022-09-03T03:36:31;3.40;;;3.15;;
35364;SDS011;21464;48.112;11.530;2022-09-03T03:38:58;4.72;;;3.22;;
35364;SDS011;21464;48.112;11.530;2022-09-03T03:41:25;2.78;;;2.58;;
35364;SDS011;21464;48.112;11.530;2022-09-03T03:43:54;3.00;;;2.80;;
35364;SDS011;21464;48.112;11.530;2022-09-03T03:46:21;3.17;;;2.88;;
35364;SDS011;21464;48.112;11.530;2022-09-03T03:48:48;3.10;;;2.75;;
35364;SDS011;21464;48.112;11.530;2022-09-03T03:51:14;5.00;;;2.90;;
35364;SDS011;21464;48.112;11.530;2022-09-03T03:53:40;3.63;;;2.90;;
35364;SDS011;21464;48.112;11.530;2022-09-03T03:56:07;3.30;;;3.10;;
35364;SDS011;21464;48.112;11.530;2022-09-03T03:58:34;3.50;;;3.20;;
35364;SDS011;21464;48.112;11.530;2022-09-03T04:01:07;3.20;;;2.92;;
35364;SDS011;21464;48.112;11.530;2022-09-03T04:03:34;3.17;;;2.97;;
35364;SDS011;21464;48.112;11.530;2022-09-03T04:06:00;4.30;;;3.03;;
35364;SDS011;21464;48.112;11.530;2022-09-03T04:08:27;4.50;;;3.10;;
35364;SDS011;21464;48.112;11.530;2022-09-03T04:10:53;3.00;;;2.80;;
35364;SDS011;21464;48.112;11.530;2022-09-03T04:13:19;3.30;;;2.45;;
35364;SDS011;21464;48.112;11.530;2022-09-03T04:15:45;3.20;;;2.90;;
35364;SDS011;21464;48.112;11.530;2022-09-03T04:18:11;3.22;;;2.92;;
35364;SDS011;21464;48.112;11.530;2022-09-03T04:20:37;3.20;;;3.00;;
35364;SDS011;21464;48.112;11.530;2022-09-03T04:23:04;3.05;;;2.85;;
35364;SDS011;21464;48.112;11.530;2022-09-03T04:25:30;2.97;;;2.75;;
35364;SDS011;21464;48.112;11.530;2022-09-03T04:27:56;3.05;;;2.85;;
35364;SDS011;21464;48.112;11.530;2022-09-03T04:30:22;4.00;;;3.60;;
35364;SDS011;21464;48.112;11.530;2022-09-03T04:32:50;3.97;;;3.50;;
35364;SDS011;21464;48.112;11.530;2022-09-03T04:35:19;3.15;;;2.85;;
35364;SDS011;21464;48.112;11.530;2022-09-03T04:37:48;3.88;;;3.47;;
35364;SDS011;21464;48.112;11.530;2022-09-03T04:40:14;5.22;;;3.85;;
35364;SDS011;21464;48.112;11.530;2022-09-03T04:42:40;3.75;;;3.25;;
35364;SDS011;21464;48.112;11.530;2022-09-03T04:45:06;3.33;;;3.13;;
35364;SDS011;21464;48.112;11.530;2022-09-03T04:47:32;3.38;;;3.08;;
35364;SDS011;21464;48.112;11.530;2022-09-03T04:49:57;2.80;;;2.60;;
35364;SDS011;21464;48.112;11.530;2022-09-03T04:52:23;7.18;;;3.75;;
35364;SDS011;21464;48.112;11.530;2022-09-03T04:54:49;3.55;;;3.25;;
35364;SDS011;21464;48.112;11.530;2022-09-03T04:57:15;3.00;;;2.70;;
35364;SDS011;21464;48.112;11.530;2022-09-03T04:59:41;3.10;;;2.90;;
35364;SDS011;21464;48.112;11.530;2022-09-03T05:02:07;2.95;;;2.72;;
35364;SDS011;21464;48.112;11.530;2022-09-03T05:04:34;3.45;;;3.15;;
35364;SDS011;21464;48.112;11.530;2022-09-03T05:07:00;3.25;;;2.92;;
35364;SDS011;21464;48.112;11.530;2022-09-03T05:09:26;3.40;;;3.10;;
35364;SDS011;21464;48.112;11.530;2022-09-03T05:11:52;3.30;;;3.00;;
35364;SDS011;21464;48.112;11.530;2022-09-03T05:14:19;3.30;;;3.00;;
35364;SDS011;21464;48.112;11.530;2022-09-03T05:16:45;8.50;;;7.13;;
35364;SDS011;21464;48.112;11.530;2022-09-03T05:19:10;3.88;;;3.20;;
35364;SDS011;21464;48.112;11.530;2022-09-03T05:21:37;5.90;;;3.05;;
35364;SDS011;21464;48.112;11.530;2022-09-03T05:24:03;3.25;;;3.05;;
35364;SDS011;21464;48.112;11.530;2022-09-03T05:26:30;3.35;;;3.05;;
35364;SDS011;21464;48.112;11.530;2022-09-03T05:28:58;3.55;;;3.17;;
35364;SDS011;21464;48.112;11.530;2022-09-03T05:31:25;5.00;;;3.60;;
35364;SDS011;21464;48.112;11.530;2022-09-03T05:33:53;3.95;;;3.00;;
35364;SDS011;21464;48.112;11.530;2022-09-03T05:36:20;3.38;;;3.17;;
35364;SDS011;21464;48.112;11.530;2022-09-03T05:38:47;17.15;;;12.68;;
35364;SDS011;21464;48.112;11.530;2022-09-03T05:41:14;3.10;;;2.90;;
35364;SDS011;21464;48.112;11.530;2022-09-03T05:43:40;3.63;;;3.10;;
35364;SDS011;21464;48.112;11.530;2022-09-03T05:46:07;3.30;;;3.10;;
35364;SDS011;21464;48.112;11.530;2022-09-03T05:48:34;3.03;;;2.70;;
35364;SDS011;21464;48.112;11.530;2022-09-03T05:51:05;3.10;;;2.90;;
35364;SDS011;21464;48.112;11.530;2022-09-03T05:53:32;5.10;;;4.60;;
35364;SDS011;21464;48.112;11.530;2022-09-03T05:55:59;3.25;;;3.03;;
35364;SDS011;21464;48.112;11.530;2022-09-03T05:58:35;3.08;;;2.88;;
35364;SDS011;21464;48.112;11.530;2022-09-03T06:01:20;3.70;;;3.40;;
35364;SDS011;21464;48.112;11.530;2022-09-03T06:03:52;4.78;;;3.17;;
35364;SDS011;21464;48.112;11.530;2022-09-03T06:06:19;3.47;;;3.17;;
35364;SDS011;21464;48.112;11.530;2022-09-03T06:08:48;4.60;;;3.38;;
35364;SDS011;21464;48.112;11.530;2022-09-03T06:11:16;3.80;;;3.50;;
35364;SDS011;21464;48.112;11.530;2022-09-03T06:13:42;3.80;;;3.10;;
35364;SDS011;21464;48.112;11.530;2022-09-03T06:16:08;3.53;;;3.22;;
35364;SDS011;21464;48.112;11.530;2022-09-03T06:18:34;4.75;;;3.30;;
35364;SDS011;21464;48.112;11.530;2022-09-03T06:21:01;3.50;;;3.30;;
35364;SDS011;21464;48.112;11.530;2022-09-03T06:23:27;3.70;;;3.40;;
35364;SDS011;21464;48.112;11.530;2022-09-03T06:28:26;4.03;;;3.63;;
35364;SDS011;21464;48.112;11.530;2022-09-03T06:30:52;3.33;;;3.13;;
35364;SDS011;21464;48.112;11.530;2022-09-03T06:33:18;3.00;;;2.80;;
35364;SDS011;21464;48.112;11.530;2022-09-03T06:35:44;3.45;;;3.17;;
35364;SDS011;21464;48.112;11.530;2022-09-03T06:38:11;3.33;;;3.10;;
35364;SDS011;21464;48.112;11.530;2022-09-03T06:40:37;3.72;;;3.42;;
35364;SDS011;21464;48.112;11.530;2022-09-03T06:43:03;9.43;;;5.30;;
35364;SDS011;21464;48.112;11.530;2022-09-03T06:45:29;5.38;;;3.40;;
35364;SDS011;21464;48.112;11.530;2022-09-03T06:47:55;4.13;;;3.83;;
35364;SDS011;21464;48.112;11.530;2022-09-03T06:50:21;3.40;;;3.10;;
35364;SDS011;21464;48.112;11.530;2022-09-03T06:52:51;3.58;;;2.90;;
35364;SDS011;21464;48.112;11.530;2022-09-03T06:55:20;3.28;;;2.95;;
35364;SDS011;21464;48.112;11.530;2022-09-03T06:57:46;3.10;;;2.78;;
35364;SDS011;21464;48.112;11.530;2022-09-03T07:00:13;2.83;;;2.63;;
35364;SDS011;21464;48.112;11.530;2022-09-03T07:02:39;3.45;;;3.17;;
35364;SDS011;21464;48.112;11.530;2022-09-03T07:05:06;3.22;;;2.95;;
35364;SDS011;21464;48.112;11.530;2022-09-03T07:07:33;3.38;;;3.10;;
35364;SDS011;21464;48.112;11.530;2022-09-03T07:09:58;3.42;;;3.13;;
35364;SDS011;21464;48.112;11.530;2022-09-03T07:12:26;3.65;;;3.08;;
35364;SDS011;21464;48.112;11.530;2022-09-03T07:14:52;3.25;;;2.97;;
35364;SDS011;21464;48.112;11.530;2022-09-03T07:17:18;3.45;;;2.80;;
35364;SDS011;21464;48.112;11.530;2022-09-03T07:19:44;3.60;;;3.30;;
35364;SDS011;21464;48.112;11.530;2022-09-03T07:22:10;3.17;;;2.97;;
35364;SDS011;21464;48.112;11.530;2022-09-03T07:24:36;3.25;;;2.95;;
35364;SDS011;21464;48.112;11.530;2022-09-03T07:27:02;3.38;;;3.08;;
35364;SDS011;21464;48.112;11.530;2022-09-03T07:29:30;3.30;;;3.10;;
35364;SDS011;21464;48.112;11.530;2022-09-03T07:31:56;3.20;;;2.97;;
35364;SDS011;21464;48.112;11.530;2022-09-03T07:34:22;2.95;;;2.75;;
35364;SDS011;21464;48.112;11.530;2022-09-03T07:36:49;3.70;;;2.83;;
35364;SDS011;21464;48.112;11.530;2022-09-03T07:39:16;3.78;;;3.00;;
35364;SDS011;21464;48.112;11.530;2022-09-03T07:41:42;3.03;;;2.83;;
35364;SDS011;21464;48.112;11.530;2022-09-03T07:44:14;3.45;;;3.15;;
35364;SDS011;21464;48.112;11.530;2022-09-03T07:46:40;3.33;;;3.03;;
35364;SDS011;21464;48.112;11.530;2022-09-03T07:49:07;4.60;;;4.00;;
35364;SDS011;21464;48.112;11.530;2022-09-03T07:51:36;3.97;;;3.58;;
35364;SDS011;21464;48.112;11.530;2022-09-03T07:54:02;3.97;;;3.40;;
35364;SDS011;21464;48.112;11.530;2022-09-03T07:56:30;5.28;;;4.80;;
35364;SDS011;21464;48.112;11.530;2022-09-03T07:58:56;4.30;;;4.00;;
35364;SDS011;21464;48.112;11.530;2022-09-03T08:01:23;4.57;;;4.07;;
35364;SDS011;21464;48.112;11.530;2022-09-03T08:03:49;4.20;;;3.80;;
35364;SDS011;21464;48.112;11.530;2022-09-03T08:06:17;3.83;;;3.53;;
35364;SDS011;21464;48.112;11.530;2022-09-03T08:08:43;4.22;;;3.83;;
35364;SDS011;21464;48.112;11.530;2022-09-03T08:11:19;4.10;;;3.80;;
35364;SDS011;21464;48.112;11.530;2022-09-03T08:13:47;4.57;;;4.07;;
35364;SDS011;21464;48.112;11.530;2022-09-03T08:16:14;4.88;;;4.35;;
35364;SDS011;21464;48.112;11.530;2022-09-03T08:18:40;4.18;;;3.88;;
35364;SDS011;21464;48.112;11.530;2022-09-03T08:21:16;5.53;;;4.43;;
35364;SDS011;21464;48.112;11.530;2022-09-03T08:23:43;4.97;;;4.40;;
35364;SDS011;21464;48.112;11.530;2022-09-03T08:26:09;6.13;;;5.57;;
35364;SDS011;21464;48.112;11.530;2022-09-03T08:28:36;5.20;;;4.80;;
35364;SDS011;21464;48.112;11.530;2022-09-03T08:31:12;6.55;;;5.30;;
35364;SDS011;21464;48.112;11.530;2022-09-03T08:33:39;8.38;;;7.18;;
35364;SDS011;21464;48.112;11.530;2022-09-03T08:36:13;7.18;;;6.57;;
35364;SDS011;21464;48.112;11.530;2022-09-03T08:38:39;7.15;;;5.45;;
35364;SDS011;21464;48.112;11.530;2022-09-03T08:41:11;5.28;;;4.75;;
35364;SDS011;21464;48.112;11.530;2022-09-03T08:46:12;8.73;;;7.85;;
35364;SDS011;21464;48.112;11.530;2022-09-03T08:48:38;8.63;;;6.80;;
35364;SDS011;21464;48.112;11.530;2022-09-03T08:51:04;6.18;;;5.68;;
35364;SDS011;21464;48.112;11.530;2022-09-03T08:53:38;10.57;;;8.23;;
35364;SDS011;21464;48.112;11.530;2022-09-03T08:56:07;7.15;;;5.93;;
35364;SDS011;21464;48.112;11.530;2022-09-03T08:58:35;5.85;;;5.45;;
35364;SDS011;21464;48.112;11.530;2022-09-03T09:11:19;6.07;;;4.82;;
35364;SDS011;21464;48.112;11.530;2022-09-03T09:13:51;3.60;;;3.30;;
35364;SDS011;21464;48.112;11.530;2022-09-03T09:16:22;3.90;;;3.60;;
35364;SDS011;21464;48.112;11.530;2022-09-03T09:21:37;3.70;;;3.33;;
35364;SDS011;21464;48.112;11.530;2022-09-03T09:24:23;3.92;;;3.55;;
35364;SDS011;21464;48.112;11.530;2022-09-03T09:26:57;3.60;;;3.40;;
35364;SDS011;21464;48.112;11.530;2022-09-03T09:29:28;3.60;;;3.30;;
35364;SDS011;21464;48.112;11.530;2022-09-03T09:31:56;3.60;;;3.30;;
35364;SDS011;21464;48.112;11.530;2022-09-03T09:34:22;3.70;;;3.40;;
35364;SDS011;21464;48.112;11.530;2022-09-03T09:36:50;3.95;;;3.10;;
35364;SDS011;21464;48.112;11.530;2022-09-03T09:39:16;2.88;;;2.67;;
35364;SDS011;21464;48.112;11.530;2022-09-03T09:41:42;3.20;;;2.80;;
35364;SDS011;21464;48.112;11.530;2022-09-03T09:44:17;3.00;;;2.72;;
35364;SDS011;21464;48.112;11.530;2022-09-03T09:46:44;2.85;;;2.65;;
35364;SDS011;21464;48.112;11.530;2022-09-03T09:52:04;4.38;;;3.97;;
35364;SDS011;21464;48.112;11.530;2022-09-03T09:54:32;2.75;;;2.55;;
35364;SDS011;21464;48.112;11.530;2022-09-03T09:57:02;2.83;;;2.63;;
35364;SDS011;21464;48.112;11.530;2022-09-03T09:59:28;2.65;;;2.55;;
35364;SDS011;21464;48.112;11.530;2022-09-03T10:02:07;2.35;;;2.15;;
35364;SDS011;21464;48.112;11.530;2022-09-03T10:04:34;2.90;;;2.70;;
35364;SDS011;21464;48.112;11.530;2022-09-03T10:07:04;2.30;;;2.20;;
35364;SDS011;21464;48.112;11.530;2022-09-03T10:09:32;2.53;;;2.40;;
35364;SDS011;21464;48.112;11.530;2022-09-03T10:14:28;2.63;;;2.42;;
35364;SDS011;21464;48.112;11.530;2022-09-03T10:17:02;3.15;;;2.92;;
35364;SDS011;21464;48.112;11.530;2022-09-03T10:19:38;2.67;;;2.47;;
35364;SDS011;21464;48.112;11.530;2022-09-03T10:22:17;2.40;;;2.20;;
35364;SDS011;21464;48.112;11.530;2022-09-03T10:24:58;2.13;;;1.92;;
35364;SDS011;21464;48.112;11.530;2022-09-03T10:27:25;2.13;;;2.03;;
35364;SDS011;21464;48.112;11.530;2022-09-03T10:29:51;2.90;;;2.70;;
35364;SDS011;21464;48.112;11.530;2022-09-03T10:32:24;5.10;;;4.60;;
35364;SDS011;21464;48.112;11.530;2022-09-03T10:37:46;4.13;;;3.67;;
35364;SDS011;21464;48.112;11.530;2022-09-03T10:40:33;2.60;;;2.40;;
35364;SDS011;21464;48.112;11.530;2022-09-03T10:43:21;5.30;;;4.80;;
35364;SDS011;21464;48.112;11.530;2022-09-03T10:45:56;3.13;;;2.85;;
35364;SDS011;21464;48.112;11.530;2022-09-03T10:48:29;2.28;;;2.15;;
35364;SDS011;21464;48.112;11.530;2022-09-03T10:53:42;1.90;;;1.80;;
35364;SDS011;21464;48.112;11.530;2022-09-03T10:56:25;2.00;;;1.90;;
35364;SDS011;21464;48.112;11.530;2022-09-03T10:58:57;1.90;;;1.80;;
35364;SDS011;21464;48.112;11.530;2022-09-03T11:04:26;1.88;;;1.77;;
35364;SDS011;21464;48.112;11.530;2022-09-03T11:06:54;2.05;;;1.95;;
35364;SDS011;21464;48.112;11.530;2022-09-03T11:14:27;1.45;;;1.40;;
35364;SDS011;21464;48.112;11.530;2022-09-03T11:16:57;1.40;;;1.40;;
35364;SDS011;21464;48.112;11.530;2022-09-03T11:19:27;2.00;;;1.77;;
35364;SDS011;21464;48.112;11.530;2022-09-03T11:21:55;2.08;;;1.98;;
35364;SDS011;21464;48.112;11.530;2022-09-03T11:24:25;1.63;;;1.55;;
35364;SDS011;21464;48.112;11.530;2022-09-03T11:26:54;1.50;;;1.40;;
35364;SDS011;21464;48.112;11.530;2022-09-03T11:29:38;1.80;;;1.70;;
35364;SDS011;21464;48.112;11.530;2022-09-03T11:32:07;1.70;;;1.60;;
35364;SDS011;21464;48.112;11.530;2022-09-03T11:34:46;1.80;;;1.70;;
35364;SDS011;21464;48.112;11.530;2022-09-03T11:37:19;1.77;;;1.67;;
35364;SDS011;21464;48.112;11.530;2022-09-03T11:40:19;2.60;;;2.40;;
35364;SDS011;21464;48.112;11.530;2022-09-03T11:42:38;1.70;;;1.60;;
35364;SDS011;21464;48.112;11.530;2022-09-03T11:47:50;1.77;;;1.65;;
35364;SDS011;21464;48.112;11.530;2022-09-03T11:50:23;1.95;;;1.85;;
35364;SDS011;21464;48.112;11.530;2022-09-03T11:52:53;1.85;;;1.75;;
35364;SDS011;21464;48.112;11.530;2022-09-03T11:55:28;2.42;;;2.22;;
35364;SDS011;21464;48.112;11.530;2022-09-03T11:58:11;4.28;;;3.90;;
35364;SDS011;21464;48.112;11.530;2022-09-03T12:00:38;4.10;;;3.70;;
35364;SDS011;21464;48.112;11.530;2022-09-03T12:03:11;6.05;;;5.03;;
35364;SDS011;21464;48.112;11.530;2022-09-03T12:05:50;3.35;;;3.05;;
35364;SDS011;21464;48.112;11.530;2022-09-03T12:16:14;2.90;;;2.70;;
35364;SDS011;21464;48.112;11.530;2022-09-03T12:18:46;4.80;;;3.40;;
35364;SDS011;21464;48.112;11.530;2022-09-03T12:21:15;2.72;;;2.53;;
35364;SDS011;21464;48.112;11.530;2022-09-03T12:26:08;1.70;;;1.60;;
35364;SDS011;21464;48.112;11.530;2022-09-03T12:28:39;1.90;;;1.80;;
35364;SDS011;21464;48.112;11.530;2022-09-03T12:31:16;2.25;;;2.05;;
35364;SDS011;21464;48.112;11.530;2022-09-03T12:36:16;2.28;;;2.15;;
35364;SDS011;21464;48.112;11.530;2022-09-03T12:38:42;1.88;;;1.77;;
35364;SDS011;21464;48.112;11.530;2022-09-03T12:41:19;1.70;;;1.60;;
35364;SDS011;21464;48.112;11.530;2022-09-03T12:43:49;2.70;;;2.50;;
35364;SDS011;21464;48.112;11.530;2022-09-03T12:46:15;2.20;;;2.00;;
35364;SDS011;21464;48.112;11.530;2022-09-03T12:49:03;2.30;;;2.10;;
35364;SDS011;21464;48.112;11.530;2022-09-03T12:51:33;2.47;;;1.85;;
35364;SDS011;21464;48.112;11.530;2022-09-03T12:53:59;2.00;;;1.90;;
35364;SDS011;21464;48.112;11.530;2022-09-03T12:56:25;2.10;;;1.90;;
35364;SDS011;21464;48.112;11.530;2022-09-03T12:58:57;1.85;;;1.50;;
35364;SDS011;21464;48.112;11.530;2022-09-03T13:01:25;1.70;;;1.60;;
35364;SDS011;21464;48.112;11.530;2022-09-03T13:03:53;2.33;;;2.10;;
35364;SDS011;21464;48.112;11.530;2022-09-03T13:06:33;1.70;;;1.60;;
35364;SDS011;21464;48.112;11.530;2022-09-03T13:09:00;1.60;;;1.50;;
35364;SDS011;21464;48.112;11.530;2022-09-03T13:11:26;2.15;;;1.80;;
35364;SDS011;21464;48.112;11.530;2022-09-03T13:19:19;1.60;;;1.40;;
35364;SDS011;21464;48.112;11.530;2022-09-03T13:26:45;1.45;;;1.45;;
35364;SDS011;21464;48.112;11.530;2022-09-03T13:29:18;1.70;;;1.60;;
35364;SDS011;21464;48.112;11.530;2022-09-03T13:31:58;1.70;;;1.60;;
35364;SDS011;21464;48.112;11.530;2022-09-03T13:34:29;1.63;;;1.52;;
35364;SDS011;21464;48.112;11.530;2022-09-03T13:44:41;2.30;;;2.00;;
35364;SDS011;21464;48.112;11.530;2022-09-03T13:47:55;3.75;;;2.33;;
35364;SDS011;21464;48.112;11.530;2022-09-03T13:50:13;2.03;;;1.92;;
35364;SDS011;21464;48.112;11.530;2022-09-03T13:57:46;1.90;;;1.80;;
35364;SDS011;21464;48.112;11.530;2022-09-03T14:00:22;2.17;;;2.08;;
35364;SDS011;21464;48.112;11.530;2022-09-03T14:13:37;1.88;;;1.77;;
35364;SDS011;21464;48.112;11.530;2022-09-03T14:16:17;1.80;;;1.70;;
35364;SDS011;21464;48.112;11.530;2022-09-03T14:18:53;3.22;;;2.92;;
35364;SDS011;21464;48.112;11.530;2022-09-03T14:21:35;2.08;;;1.98;;
35364;SDS011;21464;48.112;11.530;2022-09-03T14:24:06;2.45;;;1.92;;
35364;SDS011;21464;48.112;11.530;2022-09-03T14:26:35;8.63;;;2.53;;
35364;SDS011;21464;48.112;11.530;2022-09-03T14:36:50;4.85;;;2.67;;
35364;SDS011;21464;48.112;11.530;2022-09-03T14:46:51;2.83;;;2.20;;
35364;SDS011;21464;48.112;11.530;2022-09-03T14:59:44;3.53;;;2.72;;
35364;SDS011;21464;48.112;11.530;2022-09-03T15:07:23;3.78;;;3.08;;
35364;SDS011;21464;48.112;11.530;2022-09-03T15:12:23;4.55;;;3.42;;
35364;SDS011;21464;48.112;11.530;2022-09-03T15:14:54;4.95;;;3.88;;
35364;SDS011;21464;48.112;11.530;2022-09-03T15:24:43;25.95;;;16.98;;
35364;SDS011;21464;48.112;11.530;2022-09-03T15:27:14;23.92;;;17.45;;
35364;SDS011;21464;48.112;11.530;2022-09-03T15:30:18;7.32;;;5.97;;
35364;SDS011;21464;48.112;11.530;2022-09-03T15:38:09;10.88;;;7.72;;
35364;SDS011;21464;48.112;11.530;2022-09-03T15:40:41;12.63;;;9.80;;
35364;SDS011;21464;48.112;11.530;2022-09-03T15:48:15;9.70;;;6.68;;
35364;SDS011;21464;48.112;11.530;2022-09-03T15:50:48;6.68;;;5.00;;
35364;SDS011;21464;48.112;11.530;2022-09-03T15:53:34;6.68;;;4.05;;
35364;SDS011;21464;48.112;11.530;2022-09-03T16:08:47;5.72;;;3.13;;
35364;SDS011;21464;48.112;11.530;2022-09-03T16:14:00;4.18;;;3.67;;
35364;SDS011;21464;48.112;11.530;2022-09-03T16:16:30;3.65;;;3.03;;
35364;SDS011;21464;48.112;11.530;2022-09-03T16:21:25;2.88;;;2.58;;
35364;SDS011;21464;48.112;11.530;2022-09-03T16:24:04;2.47;;;2.28;;
35364;SDS011;21464;48.112;11.530;2022-09-03T16:26:55;3.30;;;2.30;;
35364;SDS011;21464;48.112;11.530;2022-09-03T16:29:25;2.65;;;1.90;;
35364;SDS011;21464;48.112;11.530;2022-09-03T16:32:12;2.33;;;2.10;;
35364;SDS011;21464;48.112;11.530;2022-09-03T16:34:48;3.65;;;2.50;;
35364;SDS011;21464;48.112;11.530;2022-09-03T16:42:43;1.80;;;1.70;;
35364;SDS011;21464;48.112;11.530;2022-09-03T17:03:39;7.32;;;3.50;;
35364;SDS011;21464;48.112;11.530;2022-09-03T17:18:29;2.00;;;1.90;;
35364;SDS011;21464;48.112;11.530;2022-09-03T17:26:10;3.00;;;1.63;;
35364;SDS011;21464;48.112;11.530;2022-09-03T17:31:13;3.08;;;1.67;;
35364;SDS011;21464;48.112;11.530;2022-09-03T17:46:37;6.70;;;5.45;;
35364;SDS011;21464;48.112;11.530;2022-09-03T17:49:06;6.63;;;5.15;;
35364;SDS011;21464;48.112;11.530;2022-09-03T17:54:10;9.27;;;6.95;;
35364;SDS011;21464;48.112;11.530;2022-09-03T17:56:45;6.15;;;5.35;;
35364;SDS011;21464;48.112;11.530;2022-09-03T17:59:20;6.32;;;5.45;;
35364;SDS011;21464;48.112;11.530;2022-09-03T18:01:53;5.45;;;3.92;;
35364;SDS011;21464;48.112;11.530;2022-09-03T18:06:52;3.22;;;2.45;;
35364;SDS011;21464;48.112;11.530;2022-09-03T18:09:45;2.60;;;2.40;;
35364;SDS011;21464;48.112;11.530;2022-09-03T18:19:50;2.58;;;1.77;;
35364;SDS011;21464;48.112;11.530;2022-09-03T18:25:39;2.70;;;2.05;;
35364;SDS011;21464;48.112;11.530;2022-09-03T18:28:28;3.42;;;2.67;;
35364;SDS011;21464;48.112;11.530;2022-09-03T18:31:15;3.30;;;2.22;;
35364;SDS011;21464;48.112;11.530;2022-09-03T18:34:01;2.22;;;2.00;;
35364;SDS011;21464;48.112;11.530;2022-09-03T18:36:45;3.60;;;1.90;;
35364;SDS011;21464;48.112;11.530;2022-09-03T18:39:30;2.78;;;1.60;;
35364;SDS011;21464;48.112;11.530;2022-09-03T18:42:21;3.13;;;1.80;;
35364;SDS011;21464;48.112;11.530;2022-09-03T18:45:45;1.75;;;1.65;;
35364;SDS011;21464;48.112;11.530;2022-09-03T18:48:35;2.45;;;1.80;;
35364;SDS011;21464;48.112;11.530;2022-09-03T18:57:21;5.70;;;4.30;;
35364;SDS011;21464;48.112;11.530;2022-09-03T19:00:08;9.10;;;6.43;;
35364;SDS011;21464;48.112;11.530;2022-09-03T19:08:54;4.00;;;2.03;;
35364;SDS011;21464;48.112;11.530;2022-09-03T19:14:55;2.10;;;1.90;;
35364;SDS011;21464;48.112;11.530;2022-09-03T19:20:35;2.15;;;1.95;;
35364;SDS011;21464;48.112;11.530;2022-09-03T19:23:20;2.08;;;1.85;;
35364;SDS011;21464;48.112;11.530;2022-09-03T19:26:14;2.17;;;2.00;;
35364;SDS011;21464;48.112;11.530;2022-09-03T19:29:02;5.90;;;4.45;;
35364;SDS011;21464;48.112;11.530;2022-09-03T19:32:02;4.30;;;3.67;;
35364;SDS011;21464;48.112;11.530;2022-09-03T19:34:53;3.58;;;3.25;;
35364;SDS011;21464;48.112;11.530;2022-09-03T19:46:39;2.08;;;1.70;;
35364;SDS011;21464;48.112;11.530;2022-09-03T19:50:11;4.38;;;2.35;;
35364;SDS011;21464;48.112;11.530;2022-09-03T19:55:30;4.03;;;1.80;;
35364;SDS011;21464;48.112;11.530;2022-09-03T19:58:16;2.13;;;1.95;;
35364;SDS011;21464;48.112;11.530;2022-09-03T20:01:01;2.15;;;1.73;;
35364;SDS011;21464;48.112;11.530;2022-09-03T20:03:45;1.85;;;1.75;;
35364;SDS011;21464;48.112;11.530;2022-09-03T20:06:30;2.05;;;1.95;;